createdAt,value
2022-12-01T00:00:25.128Z,25.95
2022-12-01T00:02:29.446Z,24.15
2022-12-01T00:04:31.963Z,24.55
2022-12-01T00:06:34.380Z,25.00
2022-12-01T00:08:39.359Z,23.75
2022-12-01T00:10:41.783Z,23.65
2022-12-01T00:12:46.578Z,22.48
2022-12-01T00:14:55.014Z,24.30
2022-12-01T00:16:57.452Z,23.25
2022-12-01T00:18:59.933Z,24.20
2022-12-01T00:21:02.205Z,24.58
2022-12-01T00:23:04.521Z,25.63
2022-12-01T00:25:09.707Z,24.75
2022-12-01T00:27:11.940Z,23.25
2022-12-01T00:29:14.232Z,22.58
2022-12-01T00:31:16.629Z,22.85
2022-12-01T00:33:18.919Z,24.35
2022-12-01T00:35:21.276Z,23.63
2022-12-01T00:37:23.716Z,26.70
2022-12-01T00:39:26.102Z,25.20
2022-12-01T00:41:31.115Z,23.17
2022-12-01T00:43:33.466Z,23.95
2022-12-01T00:45:36.706Z,25.23
2022-12-01T00:47:42.499Z,23.80
2022-12-01T00:49:48.113Z,25.00
2022-12-01T00:51:50.775Z,23.50
2022-12-01T00:53:53.146Z,22.83
2022-12-01T00:55:55.547Z,25.70
2022-12-01T00:58:00.470Z,23.67
2022-12-01T01:00:02.955Z,22.60
2022-12-01T01:02:06.226Z,24.65
2022-12-01T01:04:08.664Z,24.02
2022-12-01T01:06:12.580Z,26.67
2022-12-01T01:08:15.687Z,25.15
2022-12-01T01:10:18.180Z,25.40
2022-12-01T01:12:20.746Z,24.88
2022-12-01T01:14:25.778Z,26.02
2022-12-01T01:16:28.877Z,25.73
2022-12-01T01:18:32.534Z,25.30
2022-12-01T01:20:34.940Z,24.65
2022-12-01T01:22:37.227Z,24.42
2022-12-01T01:24:39.670Z,24.40
2022-12-01T01:26:42.079Z,23.90
2022-12-01T01:28:45.435Z,26.35
2022-12-01T01:30:50.570Z,23.20
2022-12-01T01:32:53.005Z,25.83
2022-12-01T01:34:55.419Z,25.38
2022-12-01T01:36:57.714Z,24.67
2022-12-01T01:39:01.278Z,25.67
2022-12-01T01:41:04.223Z,25.67
2022-12-01T01:43:14.233Z,26.10
2022-12-01T01:45:22.225Z,25.27
2022-12-01T01:47:32.344Z,23.88
2022-12-01T01:49:34.827Z,24.88
2022-12-01T01:51:40.865Z,23.35
2022-12-01T01:53:45.431Z,24.45
2022-12-01T01:55:47.931Z,23.92
2022-12-01T01:57:50.738Z,26.55
2022-12-01T01:59:58.170Z,24.55
2022-12-01T02:02:06.723Z,27.25
2022-12-01T02:04:12.894Z,25.55
2022-12-01T02:06:15.752Z,26.42
2022-12-01T02:08:18.151Z,26.92
2022-12-01T02:10:24.113Z,23.80
2022-12-01T02:12:46.994Z,24.38
2022-12-01T02:15:09.007Z,24.98
2022-12-01T02:17:21.459Z,24.38
2022-12-01T02:19:42.893Z,24.65
2022-12-01T02:22:00.246Z,26.42
2022-12-01T02:24:47.588Z,24.85
2022-12-01T02:26:58.856Z,24.20
2022-12-01T02:29:21.896Z,26.27
2022-12-01T02:31:38.907Z,27.08
2022-12-01T02:33:51.459Z,25.23
2022-12-01T02:36:01.919Z,26.23
2022-12-01T02:38:13.117Z,25.58
2022-12-01T02:40:24.363Z,26.25
2022-12-01T02:42:52.438Z,26.00
2022-12-01T02:44:56.573Z,26.70
2022-12-01T02:47:04.974Z,24.65
2022-12-01T02:49:14.114Z,25.38
2022-12-01T02:51:20.030Z,24.90
2022-12-01T02:53:22.816Z,27.27
2022-12-01T02:55:25.146Z,25.90
2022-12-01T02:57:30.074Z,24.95
2022-12-01T02:59:32.536Z,26.15
2022-12-01T03:01:55.794Z,25.27
2022-12-01T03:04:12.148Z,26.25
2022-12-01T03:06:26.945Z,26.27
2022-12-01T03:10:47.591Z,25.40
2022-12-01T03:13:01.846Z,25.33
2022-12-01T03:15:10.104Z,29.17
2022-12-01T03:17:17.114Z,28.23
2022-12-01T03:19:29.999Z,24.15
2022-12-01T03:21:36.333Z,28.23
2022-12-01T03:23:42.589Z,27.00
2022-12-01T03:25:48.846Z,27.48
2022-12-01T03:28:20.260Z,26.30
2022-12-01T03:30:19.155Z,30.75
2022-12-01T03:32:27.521Z,28.88
2022-12-01T03:34:38.309Z,27.20
2022-12-01T03:36:45.508Z,27.63
2022-12-01T03:38:55.996Z,27.00
2022-12-01T03:41:02.124Z,27.20
2022-12-01T03:43:13.640Z,29.15
2022-12-01T03:45:26.708Z,27.67
2022-12-01T03:47:32.511Z,30.83
2022-12-01T03:49:39.433Z,29.15
2022-12-01T03:51:49.433Z,28.58
2022-12-01T03:53:58.188Z,30.05
2022-12-01T03:56:06.627Z,28.42
2022-12-01T03:58:13.291Z,28.88
2022-12-01T04:00:17.133Z,28.52
2022-12-01T04:02:19.720Z,28.00
2022-12-01T04:04:22.100Z,27.38
2022-12-01T04:06:29.361Z,27.15
2022-12-01T04:08:37.338Z,26.45
2022-12-01T04:10:39.754Z,25.83
2022-12-01T04:12:42.098Z,25.83
2022-12-01T04:14:44.468Z,26.67
2022-12-01T04:16:46.839Z,25.65
2022-12-01T04:18:49.291Z,26.92
2022-12-01T04:20:51.754Z,25.58
2022-12-01T04:22:56.722Z,25.83
2022-12-01T04:24:59.190Z,25.75
2022-12-01T04:27:01.642Z,26.88
2022-12-01T04:29:05.559Z,25.73
2022-12-01T04:31:07.840Z,24.75
2022-12-01T04:33:10.265Z,26.33
2022-12-01T04:35:13.296Z,28.40
2022-12-01T04:37:16.786Z,28.60
2022-12-01T04:39:21.924Z,25.37
2022-12-01T04:41:24.326Z,26.92
2022-12-01T04:43:26.732Z,24.58
2022-12-01T04:45:29.127Z,25.02
2022-12-01T04:47:31.571Z,27.67
2022-12-01T04:49:35.333Z,26.63
2022-12-01T04:51:38.518Z,26.48
2022-12-01T04:53:40.889Z,25.80
2022-12-01T04:55:45.921Z,25.52
2022-12-01T04:57:48.541Z,25.77
2022-12-01T04:59:52.538Z,27.67
2022-12-01T05:01:55.151Z,25.35
2022-12-01T05:03:57.696Z,24.52
2022-12-01T05:06:03.210Z,25.80
2022-12-01T05:08:05.818Z,25.60
2022-12-01T05:10:16.368Z,23.95
2022-12-01T05:12:21.695Z,27.65
2022-12-01T05:14:24.102Z,26.42
2022-12-01T05:16:28.480Z,25.80
2022-12-01T05:18:31.007Z,27.50
2022-12-01T05:20:52.010Z,24.85
2022-12-01T05:23:05.258Z,27.25
2022-12-01T05:25:08.973Z,24.63
2022-12-01T05:27:11.362Z,25.13
2022-12-01T05:29:16.423Z,25.35
2022-12-01T05:31:18.878Z,23.77
2022-12-01T05:33:21.917Z,22.42
2022-12-01T05:35:24.438Z,23.77
2022-12-01T05:37:26.973Z,22.70
2022-12-01T05:39:29.400Z,26.55
2022-12-01T05:41:31.821Z,24.92
2022-12-01T05:43:34.219Z,22.75
2022-12-01T05:45:39.287Z,26.80
2022-12-01T05:47:41.719Z,26.10
2022-12-01T05:49:44.246Z,24.08
2022-12-01T05:51:47.411Z,25.70
2022-12-01T05:53:49.899Z,22.02
2022-12-01T05:55:53.559Z,23.13
2022-12-01T05:57:56.071Z,22.33
2022-12-01T05:59:58.835Z,24.35
2022-12-01T06:02:04.055Z,22.00
2022-12-01T06:04:06.543Z,24.60
2022-12-01T06:06:09.255Z,25.50
2022-12-01T06:08:11.719Z,25.80
2022-12-01T06:10:14.543Z,25.98
2022-12-01T06:12:17.266Z,23.27
2022-12-01T06:14:19.720Z,23.38
2022-12-01T06:16:22.173Z,22.88
2022-12-01T06:18:29.819Z,24.20
2022-12-01T06:20:32.973Z,23.10
2022-12-01T06:22:35.508Z,22.98
2022-12-01T06:24:40.283Z,20.98
2022-12-01T06:26:42.621Z,21.90
2022-12-01T06:28:45.124Z,20.98
2022-12-01T06:30:47.532Z,21.70
2022-12-01T06:32:49.964Z,21.63
2022-12-01T06:34:54.974Z,19.17
2022-12-01T06:36:57.353Z,22.30
2022-12-01T06:38:59.679Z,21.73
2022-12-01T06:41:02.078Z,23.20
2022-12-01T06:43:04.528Z,22.48
2022-12-01T06:45:07.947Z,23.23
2022-12-01T06:47:10.513Z,24.37
2022-12-01T06:49:13.662Z,22.63
2022-12-01T06:51:19.057Z,23.05
2022-12-01T06:53:22.284Z,20.50
2022-12-01T06:55:25.539Z,22.70
2022-12-01T06:57:28.478Z,22.25
2022-12-01T06:59:30.923Z,22.40
2022-12-01T07:01:36.508Z,22.27
2022-12-01T07:03:39.302Z,18.85
2022-12-01T07:05:42.033Z,20.25
2022-12-01T07:07:47.377Z,23.10
2022-12-01T07:09:50.131Z,21.55
2022-12-01T07:11:53.300Z,22.88
2022-12-01T07:14:05.018Z,22.02
2022-12-01T07:16:09.758Z,19.83
2022-12-01T07:18:15.164Z,19.70
2022-12-01T07:20:17.674Z,21.45
2022-12-01T07:22:20.104Z,22.20
2022-12-01T07:24:25.223Z,20.52
2022-12-01T07:26:27.688Z,19.90
2022-12-01T07:28:30.375Z,21.60
2022-12-01T07:30:32.826Z,19.60
2022-12-01T07:32:35.288Z,19.55
2022-12-01T07:34:40.544Z,19.25
2022-12-01T07:36:43.021Z,19.17
2022-12-01T07:38:45.458Z,20.20
2022-12-01T07:40:50.505Z,25.75
2022-12-01T07:42:54.549Z,19.85
2022-12-01T07:44:58.294Z,22.10
2022-12-01T07:47:03.348Z,19.00
2022-12-01T07:49:07.707Z,18.75
2022-12-01T07:53:14.277Z,18.20
2022-12-01T07:55:17.636Z,18.77
2022-12-01T07:57:25.899Z,18.50
2022-12-01T07:59:28.262Z,16.98
2022-12-01T08:01:30.772Z,18.92
2022-12-01T08:03:33.447Z,20.15
2022-12-01T08:05:36.129Z,19.55
2022-12-01T08:07:38.659Z,18.63
2022-12-01T08:09:41.122Z,17.92
2022-12-01T08:11:43.597Z,17.90
2022-12-01T08:13:51.278Z,17.67
2022-12-01T08:15:53.679Z,17.48
2022-12-01T08:17:56.191Z,18.10
2022-12-01T08:19:58.654Z,18.10
2022-12-01T08:22:01.152Z,17.77
2022-12-01T08:24:08.386Z,17.48
2022-12-01T08:26:13.201Z,18.40
2022-12-01T08:28:15.780Z,17.48
2022-12-01T08:30:20.907Z,17.42
2022-12-01T08:32:26.252Z,18.10
2022-12-01T08:34:28.940Z,17.85
2022-12-01T08:36:31.434Z,14.65
2022-12-01T08:38:34.166Z,16.75
2022-12-01T08:40:36.611Z,16.70
2022-12-01T08:42:39.109Z,15.32
2022-12-01T08:44:41.655Z,16.92
2022-12-01T08:46:46.819Z,17.00
2022-12-01T08:48:49.493Z,17.48
2022-12-01T08:50:52.189Z,14.98
2022-12-01T08:52:55.157Z,16.17
2022-12-01T08:54:57.760Z,16.85
2022-12-01T08:57:01.045Z,18.00
2022-12-01T08:59:04.372Z,15.60
2022-12-01T09:01:10.869Z,14.55
2022-12-01T09:03:15.990Z,15.85
2022-12-01T09:05:18.434Z,15.60
2022-12-01T09:07:26.035Z,15.80
2022-12-01T09:09:29.555Z,15.88
2022-12-01T09:11:31.994Z,16.02
2022-12-01T09:13:36.825Z,15.18
2022-12-01T09:15:39.295Z,15.48
2022-12-01T09:17:44.481Z,13.50
2022-12-01T09:19:52.404Z,15.70
2022-12-01T09:21:55.450Z,14.93
2022-12-01T09:23:58.577Z,15.05
2022-12-01T09:26:01.144Z,13.50
2022-12-01T09:28:03.825Z,14.15
2022-12-01T09:30:07.894Z,13.35
2022-12-01T09:32:10.405Z,13.63
2022-12-01T09:34:14.832Z,15.07
2022-12-01T09:36:19.870Z,14.05
2022-12-01T09:38:22.436Z,14.20
2022-12-01T09:40:30.175Z,14.15
2022-12-01T09:42:35.510Z,14.20
2022-12-01T09:44:44.323Z,12.82
2022-12-01T09:46:50.810Z,14.65
2022-12-01T09:48:57.313Z,14.00
2022-12-01T09:51:00.126Z,13.35
2022-12-01T09:53:09.148Z,12.30
2022-12-01T09:55:14.446Z,13.35
2022-12-01T09:57:27.111Z,14.45
2022-12-01T09:59:34.203Z,13.45
2022-12-01T10:01:39.115Z,14.95
2022-12-01T10:03:48.499Z,15.05
2022-12-01T10:06:26.871Z,14.52
2022-12-01T10:08:27.122Z,13.90
2022-12-01T10:10:34.453Z,15.43
2022-12-01T10:12:37.097Z,16.33
2022-12-01T10:14:40.324Z,16.52
2022-12-01T10:16:51.959Z,15.15
2022-12-01T10:19:00.956Z,15.60
2022-12-01T10:21:10.976Z,15.10
2022-12-01T10:23:33.716Z,15.15
2022-12-01T10:25:46.242Z,15.10
2022-12-01T10:28:06.856Z,14.20
2022-12-01T10:30:13.401Z,15.05
2022-12-01T10:32:19.876Z,14.88
2022-12-01T10:34:27.542Z,15.50
2022-12-01T10:36:32.288Z,15.27
2022-12-01T10:38:39.371Z,17.40
2022-12-01T10:40:43.064Z,16.05
2022-12-01T10:42:48.036Z,16.02
2022-12-01T10:44:51.604Z,17.85
2022-12-01T10:46:56.400Z,16.27
2022-12-01T10:49:03.024Z,17.40
2022-12-01T10:51:17.280Z,17.23
2022-12-01T10:53:39.857Z,16.35
2022-12-01T10:55:47.753Z,17.17
2022-12-01T10:57:52.470Z,15.55
2022-12-01T10:59:57.818Z,15.05
2022-12-01T11:02:02.414Z,16.50
2022-12-01T11:04:10.956Z,17.25
2022-12-01T11:06:13.592Z,15.80
2022-12-01T11:08:23.957Z,16.55
2022-12-01T11:10:30.776Z,16.40
2022-12-01T11:12:36.203Z,17.15
2022-12-01T11:14:45.044Z,17.50
2022-12-01T11:16:49.022Z,16.42
2022-12-01T11:19:09.386Z,17.90
2022-12-01T11:21:16.064Z,16.20
2022-12-01T11:25:32.100Z,17.42
2022-12-01T11:27:36.413Z,16.20
2022-12-01T11:31:51.613Z,15.10
2022-12-01T11:33:56.402Z,16.73
2022-12-01T11:35:59.337Z,16.70
2022-12-01T11:38:28.805Z,16.95
2022-12-01T11:40:30.524Z,14.18
2022-12-01T11:42:37.101Z,15.70
2022-12-01T11:44:53.528Z,16.92
2022-12-01T11:47:21.235Z,17.88
2022-12-01T11:49:20.556Z,17.05
2022-12-01T11:51:29.958Z,16.40
2022-12-01T11:53:34.639Z,16.48
2022-12-01T11:55:37.282Z,18.13
2022-12-01T11:57:44.607Z,17.35
2022-12-01T11:59:48.432Z,18.25
2022-12-01T12:02:06.566Z,16.48
2022-12-01T12:04:21.959Z,16.42
2022-12-01T12:06:39.990Z,17.65
2022-12-01T12:09:01.389Z,18.02
2022-12-01T12:11:10.566Z,17.38
2022-12-01T12:13:41.208Z,17.85
2022-12-01T12:15:54.567Z,16.42
2022-12-01T12:18:15.920Z,16.77
2022-12-01T12:20:38.093Z,16.27
2022-12-01T12:22:55.181Z,16.88
2022-12-01T12:25:11.641Z,16.73
2022-12-01T12:27:24.334Z,16.65
2022-12-01T12:29:41.285Z,15.57
2022-12-01T12:31:54.359Z,17.98
2022-12-01T12:34:22.913Z,15.68
2022-12-01T12:36:35.223Z,17.73
2022-12-01T12:38:52.237Z,16.88
2022-12-01T12:41:00.731Z,15.88
2022-12-01T12:43:25.542Z,17.67
2022-12-01T12:45:39.356Z,17.10
2022-12-01T12:47:58.330Z,16.27
2022-12-01T12:50:12.654Z,15.85
2022-12-01T12:52:18.127Z,15.48
2022-12-01T12:54:25.578Z,15.77
2022-12-01T12:56:31.123Z,14.68
2022-12-01T12:58:36.836Z,15.55
2022-12-01T13:00:48.547Z,14.88
2022-12-01T13:02:55.823Z,17.20
2022-12-01T13:05:03.382Z,14.38
2022-12-01T13:07:25.861Z,15.13
2022-12-01T13:09:35.340Z,15.05
2022-12-01T13:11:49.361Z,14.85
2022-12-01T13:14:01.942Z,15.02
2022-12-01T13:16:13.484Z,15.43
2022-12-01T13:18:25.419Z,15.63
2022-12-01T13:20:32.264Z,15.23
2022-12-01T13:22:36.019Z,14.73
2022-12-01T13:24:38.679Z,15.27
2022-12-01T13:26:44.005Z,16.83
2022-12-01T13:28:50.982Z,16.58
2022-12-01T13:31:02.032Z,17.48
2022-12-01T13:33:07.800Z,15.65
2022-12-01T13:35:25.415Z,16.40
2022-12-01T13:37:29.962Z,16.40
2022-12-01T13:39:37.235Z,15.63
2022-12-01T13:41:41.066Z,17.73
2022-12-01T13:44:03.736Z,17.88
2022-12-01T13:46:19.189Z,15.35
2022-12-01T13:48:51.068Z,17.33
2022-12-01T13:51:00.089Z,17.40
2022-12-01T13:53:12.712Z,18.13
2022-12-01T13:55:26.047Z,16.50
2022-12-01T13:57:33.478Z,18.23
2022-12-01T13:59:42.016Z,18.92
2022-12-01T14:01:47.291Z,17.45
2022-12-01T14:06:08.985Z,15.90
2022-12-01T14:08:21.287Z,17.95
2022-12-01T14:10:31.132Z,18.65
2022-12-01T14:12:37.851Z,17.35
2022-12-01T14:14:47.041Z,18.95
2022-12-01T14:16:52.010Z,17.88
2022-12-01T14:19:03.354Z,17.45
2022-12-01T14:21:07.864Z,17.80
2022-12-01T14:23:21.507Z,17.77
2022-12-01T14:25:27.277Z,18.48
2022-12-01T14:27:41.082Z,18.17
2022-12-01T14:29:44.107Z,19.53
2022-12-01T14:32:24.463Z,16.90
2022-12-01T14:34:34.319Z,18.65
2022-12-01T14:36:49.687Z,17.92
2022-12-01T14:38:59.214Z,18.73
2022-12-01T14:41:18.221Z,18.27
2022-12-01T14:43:47.202Z,17.83
2022-12-01T14:46:01.620Z,17.38
2022-12-01T14:48:08.087Z,19.88
2022-12-01T14:50:20.948Z,19.08
2022-12-01T14:52:34.832Z,18.77
2022-12-01T14:54:43.351Z,19.02
2022-12-01T14:56:50.011Z,20.13
2022-12-01T14:58:55.172Z,22.60
2022-12-01T15:01:03.542Z,19.75
2022-12-01T15:03:14.294Z,18.80
2022-12-01T15:05:23.902Z,21.45
2022-12-01T15:07:26.471Z,20.48
2022-12-01T15:09:34.065Z,18.42
2022-12-01T15:11:39.696Z,19.67
2022-12-01T15:13:48.693Z,19.40
2022-12-01T15:15:52.533Z,20.23
2022-12-01T15:17:57.805Z,20.85
2022-12-01T15:20:01.145Z,20.60
2022-12-01T15:22:18.157Z,20.90
2022-12-01T15:24:23.130Z,21.17
2022-12-01T15:29:16.214Z,21.02
2022-12-01T15:31:18.784Z,20.98
2022-12-01T15:34:09.523Z,21.00
2022-12-01T15:36:13.530Z,21.65
2022-12-01T15:38:23.816Z,20.90
2022-12-01T15:43:02.160Z,21.90
2022-12-01T15:45:18.025Z,22.58
2022-12-01T15:47:36.022Z,21.10
2022-12-01T15:49:49.042Z,20.75
2022-12-01T15:51:52.694Z,20.90
2022-12-01T15:53:59.820Z,20.65
2022-12-01T15:56:15.257Z,23.17
2022-12-01T15:58:25.142Z,20.98
2022-12-01T16:00:28.108Z,21.75
2022-12-01T16:02:33.625Z,19.85
2022-12-01T16:04:37.357Z,23.20
2022-12-01T16:06:40.599Z,22.30
2022-12-01T16:08:53.949Z,23.45
2022-12-01T16:11:16.636Z,24.67
2022-12-01T16:13:43.451Z,22.92
2022-12-01T16:15:45.788Z,23.50
2022-12-01T16:17:49.994Z,20.73
2022-12-01T16:20:17.989Z,20.92
2022-12-01T16:22:22.761Z,22.23
2022-12-01T16:24:29.480Z,23.40
2022-12-01T16:26:34.734Z,22.70
2022-12-01T16:28:37.243Z,21.30
2022-12-01T16:30:40.165Z,23.17
2022-12-01T16:32:44.117Z,23.40
2022-12-01T16:34:47.379Z,23.13
2022-12-01T16:36:50.166Z,22.00
2022-12-01T16:38:52.459Z,22.25
2022-12-01T16:40:56.842Z,22.88
2022-12-01T16:45:14.948Z,23.55
2022-12-01T16:47:19.323Z,23.92
2022-12-01T16:51:29.889Z,21.35
2022-12-01T16:53:49.606Z,23.20
2022-12-01T16:55:55.118Z,23.08
2022-12-01T16:57:58.169Z,23.55
2022-12-01T17:00:03.907Z,20.55
2022-12-01T17:02:10.921Z,23.30
2022-12-01T17:06:18.218Z,22.65
2022-12-01T17:08:21.724Z,24.42
2022-12-01T17:10:24.766Z,21.65
2022-12-01T17:12:27.254Z,23.38
2022-12-01T17:14:32.686Z,21.83
2022-12-01T17:16:38.116Z,22.58
2022-12-01T17:18:40.744Z,23.98
2022-12-01T17:20:43.569Z,22.88
2022-12-01T17:22:46.036Z,22.38
2022-12-01T17:24:48.765Z,20.90
2022-12-01T17:26:51.490Z,22.63
2022-12-01T17:28:55.127Z,20.58
2022-12-01T17:31:00.302Z,21.17
2022-12-01T17:33:05.374Z,22.80
2022-12-01T17:35:08.989Z,21.85
2022-12-01T17:37:14.854Z,21.17
2022-12-01T17:39:20.097Z,20.63
2022-12-01T17:41:24.765Z,21.45
2022-12-01T17:43:27.366Z,21.10
2022-12-01T17:45:29.925Z,21.00
2022-12-01T17:47:32.293Z,21.30
2022-12-01T17:49:38.770Z,21.10
2022-12-01T17:51:43.943Z,21.23
2022-12-01T17:53:46.518Z,19.60
2022-12-01T17:55:49.009Z,21.08
2022-12-01T17:57:51.450Z,20.15
2022-12-01T17:59:53.997Z,21.05
2022-12-01T18:01:56.463Z,20.55
2022-12-01T18:03:59.223Z,20.10
2022-12-01T18:06:04.731Z,20.45
2022-12-01T18:08:08.161Z,21.27
2022-12-01T18:10:10.937Z,20.67
2022-12-01T18:12:13.192Z,20.65
2022-12-01T18:14:18.051Z,20.35
2022-12-01T18:16:22.778Z,20.65
2022-12-01T18:18:25.139Z,20.77
2022-12-01T18:20:27.401Z,20.98
2022-12-01T18:22:32.306Z,20.73
2022-12-01T18:24:34.660Z,19.48
2022-12-01T18:26:40.023Z,22.13
2022-12-01T18:28:42.467Z,20.55
2022-12-01T18:30:45.080Z,20.13
2022-12-01T18:32:47.715Z,20.73
2022-12-01T18:34:50.380Z,21.70
2022-12-01T18:36:52.930Z,18.45
2022-12-01T18:38:59.640Z,19.73
2022-12-01T18:41:03.062Z,21.10
2022-12-01T18:43:05.607Z,21.60
2022-12-01T18:45:12.182Z,21.08
2022-12-01T18:47:16.911Z,20.20
2022-12-01T18:49:19.754Z,20.67
2022-12-01T18:51:22.488Z,19.38
2022-12-01T18:53:24.914Z,19.08
2022-12-01T18:55:29.957Z,18.42
2022-12-01T18:57:32.371Z,21.00
2022-12-01T18:59:34.955Z,20.98
2022-12-01T19:01:40.407Z,18.80
2022-12-01T19:03:42.829Z,19.27
2022-12-01T19:05:45.264Z,20.33
2022-12-01T19:07:48.004Z,19.60
2022-12-01T19:09:51.383Z,19.35
2022-12-01T19:12:00.031Z,20.25
2022-12-01T19:14:03.647Z,19.42
2022-12-01T19:16:07.491Z,18.13
2022-12-01T19:18:09.876Z,19.15
2022-12-01T19:20:13.179Z,18.55
2022-12-01T19:22:15.470Z,17.77
2022-12-01T19:24:17.837Z,18.85
2022-12-01T19:26:22.420Z,19.27
2022-12-01T19:28:28.999Z,17.67
2022-12-01T19:30:31.479Z,19.30
2022-12-01T19:32:34.492Z,19.88
2022-12-01T19:34:36.966Z,19.40
2022-12-01T19:36:39.525Z,17.65
2022-12-01T19:38:42.456Z,18.88
2022-12-01T19:40:44.983Z,19.30
2022-12-01T19:42:47.710Z,17.58
2022-12-01T19:44:53.305Z,19.52
2022-12-01T19:46:56.829Z,18.35
2022-12-01T19:49:01.107Z,18.23
2022-12-01T19:53:05.999Z,18.25
2022-12-01T19:55:09.229Z,19.83
2022-12-01T19:57:11.640Z,19.42
2022-12-01T19:59:15.064Z,20.30
2022-12-01T20:01:20.795Z,21.03
2022-12-01T20:03:23.244Z,19.02
2022-12-01T20:05:25.600Z,17.92
2022-12-01T20:07:28.569Z,20.60
2022-12-01T20:09:30.931Z,20.63
2022-12-01T20:11:35.425Z,20.45
2022-12-01T20:13:38.985Z,19.20
2022-12-01T20:15:41.308Z,21.02
2022-12-01T20:17:46.805Z,19.77
2022-12-01T20:19:49.115Z,20.23
2022-12-01T20:21:51.693Z,21.25
2022-12-01T20:23:59.716Z,18.55
2022-12-01T20:26:04.015Z,19.85
2022-12-01T20:28:06.394Z,19.55
2022-12-01T20:30:10.401Z,20.55
2022-12-01T20:34:21.125Z,20.48
2022-12-01T20:36:23.936Z,18.50
2022-12-01T20:38:27.851Z,20.98
2022-12-01T20:40:30.287Z,17.58
2022-12-01T20:42:32.928Z,19.30
2022-12-01T20:44:35.450Z,19.30
2022-12-01T20:46:41.103Z,18.85
2022-12-01T20:48:45.744Z,18.02
2022-12-01T20:50:50.862Z,18.65
2022-12-01T20:52:53.260Z,16.80
2022-12-01T20:54:55.736Z,18.35
2022-12-01T20:56:58.619Z,17.92
2022-12-01T20:59:01.242Z,16.58
2022-12-01T21:01:08.541Z,17.15
2022-12-01T21:03:11.374Z,18.95
2022-12-01T21:05:14.750Z,17.13
2022-12-01T21:07:19.648Z,19.13
2022-12-01T21:09:21.892Z,19.67
2022-12-01T21:11:44.794Z,19.63
2022-12-01T21:13:47.924Z,18.30
2022-12-01T21:15:57.306Z,18.60
2022-12-01T21:18:08.764Z,19.63
2022-12-01T21:20:21.717Z,18.42
2022-12-01T21:22:27.973Z,18.27
2022-12-01T21:24:35.761Z,18.95
2022-12-01T21:26:42.866Z,17.55
2022-12-01T21:28:48.026Z,17.83
2022-12-01T21:30:53.896Z,18.33
2022-12-01T21:33:10.182Z,17.67
2022-12-01T21:35:18.848Z,17.00
2022-12-01T21:37:23.276Z,17.90
2022-12-01T21:39:29.951Z,17.20
2022-12-01T21:41:35.311Z,17.65
2022-12-01T21:43:38.610Z,17.25
2022-12-01T21:45:41.266Z,16.98
2022-12-01T21:47:43.742Z,17.90
2022-12-01T21:49:47.754Z,15.77
2022-12-01T21:51:52.484Z,16.52
2022-12-01T21:53:56.726Z,14.50
2022-12-01T21:56:02.141Z,14.35
2022-12-01T21:58:23.517Z,14.93
2022-12-01T22:00:28.873Z,15.05
2022-12-01T22:02:43.712Z,14.18
2022-12-01T22:04:46.706Z,15.02
2022-12-01T22:06:51.960Z,13.98
2022-12-01T22:08:56.188Z,14.55
2022-12-01T22:11:07.375Z,15.90
2022-12-01T22:13:10.968Z,13.25
2022-12-01T22:17:28.321Z,12.40
2022-12-01T22:19:32.185Z,13.40
2022-12-01T22:21:40.097Z,13.85
2022-12-01T22:23:42.504Z,13.80
2022-12-01T22:25:47.451Z,14.73
2022-12-01T22:27:52.609Z,12.32
2022-12-01T22:29:58.388Z,13.65
2022-12-01T22:32:22.025Z,12.40
2022-12-01T22:34:24.288Z,12.93
2022-12-01T22:36:30.201Z,14.57
2022-12-01T22:38:35.681Z,13.15
2022-12-01T22:40:45.630Z,14.25
2022-12-01T22:42:48.035Z,13.27
2022-12-01T22:44:53.163Z,13.23
2022-12-01T22:47:00.553Z,13.45
2022-12-01T22:49:13.939Z,13.77
2022-12-01T22:51:23.401Z,13.52
2022-12-01T22:53:29.605Z,13.52
2022-12-01T22:55:32.024Z,14.02
2022-12-01T22:57:36.642Z,13.05
2022-12-01T22:59:42.047Z,12.30
2022-12-01T23:01:53.755Z,14.73
2022-12-01T23:04:14.766Z,12.52
2022-12-01T23:06:44.614Z,13.30
2022-12-01T23:08:47.010Z,14.30
2022-12-01T23:10:49.737Z,13.80
2022-12-01T23:12:53.683Z,13.90
2022-12-01T23:14:58.641Z,15.65
2022-12-01T23:17:13.535Z,14.23
2022-12-01T23:19:16.506Z,13.10
2022-12-01T23:21:18.930Z,13.18
2022-12-01T23:23:26.065Z,15.32
2022-12-01T23:25:28.851Z,15.70
2022-12-01T23:27:31.423Z,13.88
2022-12-01T23:29:34.647Z,14.48
2022-12-01T23:31:37.122Z,13.77
2022-12-01T23:33:42.164Z,14.10
2022-12-01T23:35:51.510Z,14.82
2022-12-01T23:37:54.501Z,14.35
2022-12-01T23:39:57.370Z,13.93
2022-12-01T23:42:00.316Z,14.07
2022-12-01T23:44:11.525Z,14.65
2022-12-01T23:46:16.941Z,14.02
2022-12-01T23:48:22.417Z,14.35
2022-12-01T23:50:30.248Z,14.50
2022-12-01T23:52:36.145Z,12.85
2022-12-01T23:54:39.028Z,14.68
2022-12-01T23:56:41.789Z,14.73
2022-12-01T23:58:44.764Z,13.55
